createdAt,value
2018-03-12T00:00:51.575Z,25.50
2018-03-12T00:03:17.874Z,25.60
2018-03-12T00:05:44.132Z,22.43
2018-03-12T00:08:10.531Z,23.03
2018-03-12T00:10:37.577Z,24.47
2018-03-12T00:13:04.661Z,23.63
2018-03-12T00:15:30.980Z,22.83
2018-03-12T00:17:57.258Z,22.43
2018-03-12T00:20:23.514Z,27.53
2018-03-12T00:22:50.558Z,22.97
2018-03-12T00:25:17.627Z,26.07
2018-03-12T00:27:43.947Z,25.97
2018-03-12T00:30:10.298Z,28.30
2018-03-12T00:32:36.642Z,23.77
2018-03-12T00:35:02.996Z,25.13
2018-03-12T00:37:29.303Z,29.40
2018-03-12T00:39:55.572Z,28.40
2018-03-12T00:42:21.875Z,25.87
2018-03-12T00:44:48.130Z,27.97
2018-03-12T00:47:14.422Z,30.43
2018-03-12T00:49:40.759Z,25.60
2018-03-12T00:52:07.045Z,25.97
2018-03-12T00:54:34.121Z,24.90
2018-03-12T00:57:00.439Z,28.37
2018-03-12T00:59:26.791Z,34.47
2018-03-12T01:01:53.069Z,30.50
2018-03-12T01:04:19.366Z,32.00
2018-03-12T01:06:45.624Z,32.23
2018-03-12T01:09:17.975Z,31.13
2018-03-12T01:11:44.258Z,26.20
2018-03-12T01:14:11.337Z,36.63
2018-03-12T01:16:37.640Z,32.03
2018-03-12T01:19:04.869Z,34.27
2018-03-12T01:21:31.984Z,32.90
2018-03-12T01:23:58.343Z,33.17
2018-03-12T01:26:24.612Z,34.00
2018-03-12T01:28:50.952Z,33.70
2018-03-12T01:31:17.236Z,36.97
2018-03-12T01:33:43.532Z,30.30
2018-03-12T01:36:10.468Z,30.47
2018-03-12T01:38:36.802Z,31.50
2018-03-12T01:41:03.106Z,29.73
2018-03-12T01:43:29.372Z,37.20
2018-03-12T01:45:55.684Z,35.63
2018-03-12T01:48:21.992Z,37.27
2018-03-12T01:50:48.347Z,38.80
2018-03-12T01:53:14.659Z,34.73
2018-03-12T01:55:40.983Z,30.93
2018-03-12T01:58:07.319Z,39.27
2018-03-12T02:00:33.642Z,40.03
2018-03-12T02:03:00.707Z,39.67
2018-03-12T02:05:27.039Z,39.00
2018-03-12T02:07:53.355Z,33.30
2018-03-12T02:10:20.368Z,36.13
2018-03-12T02:12:46.765Z,36.23
2018-03-12T02:15:13.081Z,35.03
2018-03-12T02:17:39.423Z,33.73
2018-03-12T02:20:05.846Z,35.50
2018-03-12T02:22:32.154Z,36.90
2018-03-12T02:24:59.194Z,38.80
2018-03-12T02:27:26.222Z,34.70
2018-03-12T02:29:52.502Z,36.43
2018-03-12T02:32:18.814Z,34.97
2018-03-12T02:34:45.869Z,34.80
2018-03-12T02:37:12.168Z,36.27
2018-03-12T02:39:38.519Z,30.93
2018-03-12T02:42:05.556Z,38.33
2018-03-12T02:44:31.881Z,37.30
2018-03-12T02:46:58.206Z,38.43
2018-03-12T02:49:24.504Z,34.87
2018-03-12T02:51:50.874Z,31.80
2018-03-12T02:54:17.231Z,34.20
2018-03-12T02:56:44.254Z,32.30
2018-03-12T02:59:11.569Z,32.67
2018-03-12T03:01:37.909Z,30.17
2018-03-12T03:04:04.232Z,30.80
2018-03-12T03:06:30.537Z,33.73
2018-03-12T03:08:56.921Z,34.63
2018-03-12T03:11:23.201Z,34.60
2018-03-12T03:13:49.508Z,31.60
2018-03-12T03:16:16.605Z,30.70
2018-03-12T03:18:42.901Z,31.40
2018-03-12T03:21:09.914Z,32.30
2018-03-12T03:23:36.207Z,37.43
2018-03-12T03:26:02.578Z,37.43
2018-03-12T03:28:28.871Z,32.73
2018-03-12T03:30:55.211Z,34.33
2018-03-12T03:33:21.570Z,32.07
2018-03-12T03:35:48.621Z,34.10
2018-03-12T03:38:14.949Z,32.83
2018-03-12T03:40:41.293Z,37.23
2018-03-12T03:43:08.369Z,41.27
2018-03-12T03:45:34.703Z,39.07
2018-03-12T03:48:01.017Z,34.93
2018-03-12T03:50:28.105Z,34.40
2018-03-12T03:52:54.471Z,34.57
2018-03-12T03:55:20.799Z,37.87
2018-03-12T03:57:47.111Z,36.17
2018-03-12T04:00:13.399Z,31.30
2018-03-12T04:02:39.716Z,33.83
2018-03-12T04:05:06.739Z,34.63
2018-03-12T04:07:33.072Z,33.97
2018-03-12T04:09:59.368Z,32.97
2018-03-12T04:12:25.688Z,35.80
2018-03-12T04:14:52.012Z,35.10
2018-03-12T04:17:18.348Z,32.67
2018-03-12T04:19:44.689Z,40.23
2018-03-12T04:22:11.008Z,32.67
2018-03-12T04:24:37.372Z,39.53
2018-03-12T04:27:03.660Z,39.37
2018-03-12T04:29:29.991Z,42.50
2018-03-12T04:31:56.258Z,35.47
2018-03-12T04:34:22.533Z,41.80
2018-03-12T04:36:49.555Z,39.00
2018-03-12T04:39:15.800Z,37.70
2018-03-12T04:41:43.560Z,42.27
2018-03-12T04:44:09.807Z,41.80
2018-03-12T04:46:36.944Z,44.07
2018-03-12T04:49:04.704Z,37.23
2018-03-12T04:51:30.953Z,37.30
2018-03-12T04:53:57.278Z,53.20
2018-03-12T04:56:24.317Z,39.60
2018-03-12T04:58:50.708Z,45.50
2018-03-12T05:01:17.008Z,44.87
2018-03-12T05:03:43.292Z,37.10
2018-03-12T05:06:09.554Z,39.20
2018-03-12T05:08:36.572Z,39.80
2018-03-12T05:11:02.902Z,38.10
2018-03-12T05:13:29.174Z,43.53
2018-03-12T05:15:55.470Z,41.57
2018-03-12T05:18:22.526Z,35.97
2018-03-12T05:20:48.817Z,46.50
2018-03-12T05:23:15.087Z,40.57
2018-03-12T05:25:41.399Z,30.80
2018-03-12T05:28:07.645Z,38.13
2018-03-12T05:30:33.935Z,31.17
2018-03-12T05:33:00.199Z,34.33
2018-03-12T05:35:26.517Z,35.20
2018-03-12T05:37:52.819Z,30.63
2018-03-12T05:40:19.081Z,30.13
2018-03-12T05:42:45.401Z,32.53
2018-03-12T05:45:11.758Z,36.30
2018-03-12T05:47:38.037Z,33.90
2018-03-12T05:50:04.339Z,36.70
2018-03-12T05:52:31.386Z,34.27
2018-03-12T05:54:59.381Z,34.80
2018-03-12T05:57:25.715Z,31.70
2018-03-12T05:59:52.057Z,37.47
2018-03-12T06:02:18.994Z,40.47
2018-03-12T06:04:45.305Z,32.87
2018-03-12T06:07:11.600Z,33.83
2018-03-12T06:09:37.914Z,32.70
2018-03-12T06:12:04.183Z,35.67
2018-03-12T06:14:31.243Z,33.73
2018-03-12T06:16:57.591Z,38.63
2018-03-12T06:19:23.921Z,33.03
2018-03-12T06:21:50.227Z,35.97
2018-03-12T06:24:17.261Z,36.70
2018-03-12T06:26:44.269Z,37.20
2018-03-12T06:29:10.508Z,40.33
2018-03-12T06:31:36.780Z,38.37
2018-03-12T06:34:03.792Z,39.17
2018-03-12T06:36:30.082Z,37.60
2018-03-12T06:38:56.444Z,36.27
2018-03-12T06:41:22.708Z,35.83
2018-03-12T06:43:49.732Z,42.10
2018-03-12T06:46:15.980Z,37.90
2018-03-12T06:48:42.360Z,37.80
2018-03-12T06:51:08.636Z,46.00
2018-03-12T06:53:34.938Z,45.60
2018-03-12T06:56:01.271Z,38.70
2018-03-12T06:58:27.523Z,42.20
2018-03-12T07:00:53.821Z,37.57
2018-03-12T07:03:20.063Z,47.07
2018-03-12T07:05:46.379Z,43.37
2018-03-12T07:08:12.641Z,43.60
2018-03-12T07:10:38.971Z,43.37
2018-03-12T07:13:05.282Z,44.10
2018-03-12T07:15:31.631Z,43.40
2018-03-12T07:17:57.949Z,41.67
2018-03-12T07:20:24.237Z,40.30
2018-03-12T07:22:50.575Z,45.93
2018-03-12T07:25:16.892Z,44.53
2018-03-12T07:27:43.919Z,49.30
2018-03-12T07:30:17.105Z,45.50
2018-03-12T07:32:43.475Z,45.17
2018-03-12T07:35:09.781Z,43.10
2018-03-12T07:37:36.847Z,48.07
2018-03-12T07:40:03.153Z,49.20
2018-03-12T07:42:29.543Z,51.03
2018-03-12T07:44:55.845Z,47.30
2018-03-12T07:47:22.169Z,48.00
2018-03-12T07:49:49.222Z,49.87
2018-03-12T07:52:16.402Z,47.30
2018-03-12T07:54:42.738Z,63.63
2018-03-12T07:57:09.016Z,46.93
2018-03-12T07:59:36.050Z,46.13
2018-03-12T08:02:02.414Z,53.07
2018-03-12T08:04:28.788Z,55.37
2018-03-12T08:06:55.142Z,43.60
2018-03-12T08:09:21.428Z,41.97
2018-03-12T08:11:47.748Z,44.93
2018-03-12T08:14:14.023Z,48.20
2018-03-12T08:16:40.324Z,40.83
2018-03-12T08:19:06.652Z,47.00
2018-03-12T08:21:33.018Z,52.67
2018-03-12T08:23:59.360Z,46.87
2018-03-12T08:26:25.679Z,55.87
2018-03-12T08:28:51.978Z,43.07
2018-03-12T08:31:18.343Z,61.13
2018-03-12T08:33:44.721Z,44.27
2018-03-12T08:36:12.033Z,45.40
2018-03-12T08:38:38.370Z,41.27
2018-03-12T08:41:05.479Z,48.60
2018-03-12T08:43:31.781Z,45.93
2018-03-12T08:45:58.818Z,46.70
2018-03-12T08:48:25.864Z,43.30
2018-03-12T08:50:52.888Z,45.13
2018-03-12T08:53:19.172Z,42.03
2018-03-12T08:55:46.402Z,39.27
2018-03-12T08:58:13.434Z,42.00
2018-03-12T09:00:40.469Z,39.97
2018-03-12T09:03:06.750Z,43.80
2018-03-12T09:05:33.029Z,39.47
2018-03-12T09:07:59.327Z,36.73
2018-03-12T09:10:25.607Z,42.80
2018-03-12T09:12:52.638Z,42.53
2018-03-12T09:15:19.889Z,35.80
2018-03-12T09:17:46.149Z,41.83
2018-03-12T09:20:13.204Z,44.03
2018-03-12T09:22:39.484Z,42.53
2018-03-12T09:25:05.784Z,37.03
2018-03-12T09:27:32.114Z,38.83
2018-03-12T09:29:58.404Z,37.77
2018-03-12T09:32:24.676Z,35.30
2018-03-12T09:34:50.965Z,35.60
2018-03-12T09:37:18.020Z,37.07
2018-03-12T09:39:45.064Z,35.27
2018-03-12T09:42:12.072Z,39.53
2018-03-12T09:44:38.353Z,36.27
2018-03-12T09:47:05.385Z,44.33
2018-03-12T09:49:32.409Z,38.30
2018-03-12T09:51:58.703Z,35.60
2018-03-12T09:54:25.007Z,38.10
2018-03-12T09:56:52.047Z,35.37
2018-03-12T09:59:19.099Z,33.90
2018-03-12T10:01:46.110Z,33.87
2018-03-12T10:04:12.397Z,29.90
2018-03-12T10:06:38.713Z,21.07
2018-03-12T10:09:05.750Z,24.43
2018-03-12T10:11:32.816Z,29.73
2018-03-12T10:13:59.173Z,28.33
2018-03-12T10:16:25.467Z,11.67
2018-03-12T10:18:52.516Z,20.10
2018-03-12T10:21:19.571Z,23.43
2018-03-12T10:23:46.583Z,27.50
2018-03-12T10:26:12.879Z,20.20
2018-03-12T10:28:39.161Z,13.83
2018-03-12T10:31:05.435Z,15.73
2018-03-12T10:33:31.737Z,7.77
2018-03-12T10:35:59.053Z,5.90
2018-03-12T10:38:25.317Z,7.37
2018-03-12T10:40:52.416Z,7.30
2018-03-12T10:43:18.729Z,5.93
2018-03-12T10:45:45.066Z,11.80
2018-03-12T10:48:11.342Z,7.27
2018-03-12T10:50:38.402Z,3.87
2018-03-12T10:53:05.448Z,6.47
2018-03-12T10:55:32.502Z,6.03
2018-03-12T10:57:59.521Z,5.23
2018-03-12T11:00:37.661Z,3.77
2018-03-12T11:03:06.713Z,5.03
2018-03-12T11:05:32.967Z,5.60
2018-03-12T11:08:00.030Z,3.60
2018-03-12T11:10:27.047Z,2.43
2018-03-12T11:12:53.388Z,2.60
2018-03-12T11:15:19.704Z,4.00
2018-03-12T11:17:46.036Z,4.27
2018-03-12T11:20:12.298Z,3.53
2018-03-12T11:22:39.304Z,2.87
2018-03-12T11:25:05.586Z,3.00
2018-03-12T11:27:32.624Z,4.23
2018-03-12T11:29:58.911Z,2.00
2018-03-12T11:32:25.156Z,1.93
2018-03-12T11:34:51.460Z,2.27
2018-03-12T11:37:17.734Z,2.90
2018-03-12T11:39:44.737Z,3.23
2018-03-12T11:42:11.035Z,3.20
2018-03-12T11:44:37.344Z,2.60
2018-03-12T11:47:11.328Z,3.30
2018-03-12T11:49:37.620Z,3.83
2018-03-12T11:52:03.928Z,2.03
2018-03-12T11:54:30.954Z,3.27
2018-03-12T11:56:58.737Z,2.93
2018-03-12T11:59:25.793Z,3.47
2018-03-12T12:01:52.761Z,3.53
2018-03-12T12:04:19.070Z,4.23
2018-03-12T12:06:45.734Z,4.53
2018-03-12T12:09:12.047Z,4.07
2018-03-12T12:11:38.363Z,3.27
2018-03-12T12:14:05.409Z,2.60
2018-03-12T12:16:32.460Z,4.77
2018-03-12T12:19:00.378Z,5.27
2018-03-12T12:21:26.733Z,3.17
2018-03-12T12:23:53.044Z,3.80
2018-03-12T12:26:19.469Z,2.93
2018-03-12T12:28:45.749Z,3.33
2018-03-12T12:31:12.773Z,3.67
2018-03-12T12:33:39.128Z,2.23
2018-03-12T12:36:06.171Z,2.20
2018-03-12T12:38:33.223Z,7.07
2018-03-12T12:41:01.211Z,2.57
2018-03-12T12:43:27.522Z,4.13
2018-03-12T12:45:54.561Z,3.40
2018-03-12T12:48:20.854Z,5.20
2018-03-12T12:50:47.177Z,3.77
2018-03-12T12:53:13.515Z,8.10
2018-03-12T12:55:39.968Z,3.23
2018-03-12T12:58:06.310Z,3.33
2018-03-12T13:00:32.592Z,3.53
2018-03-12T13:02:58.872Z,2.90
2018-03-12T13:05:25.970Z,2.43
2018-03-12T13:07:52.252Z,2.73
2018-03-12T13:10:18.610Z,6.93
2018-03-12T13:12:45.145Z,8.20
2018-03-12T13:15:12.163Z,2.77
2018-03-12T13:17:38.513Z,2.77
2018-03-12T13:20:05.572Z,3.97
2018-03-12T13:22:32.619Z,4.30
2018-03-12T13:24:59.636Z,2.40
2018-03-12T13:27:25.948Z,2.70
2018-03-12T13:29:52.468Z,2.70
2018-03-12T13:32:18.895Z,1.70
2018-03-12T13:34:45.445Z,1.77
2018-03-12T13:37:11.792Z,1.77
2018-03-12T13:39:39.095Z,1.60
2018-03-12T13:42:06.183Z,1.90
2018-03-12T13:44:39.629Z,2.80
2018-03-12T13:47:06.193Z,1.00
2018-03-12T13:49:32.489Z,1.40
2018-03-12T13:51:59.693Z,1.50
2018-03-12T13:54:25.978Z,1.20
2018-03-12T13:56:53.123Z,2.80
2018-03-12T13:59:19.419Z,3.47
2018-03-12T14:01:45.705Z,1.60
2018-03-12T14:04:12.842Z,2.10
2018-03-12T14:06:39.889Z,3.00
2018-03-12T14:09:06.904Z,1.50
2018-03-12T14:11:33.227Z,2.93
2018-03-12T14:13:59.492Z,2.30
2018-03-12T14:16:25.895Z,2.20
2018-03-12T14:18:52.212Z,3.00
2018-03-12T14:21:18.520Z,3.00
2018-03-12T14:23:44.788Z,3.10
2018-03-12T14:26:11.778Z,3.00
2018-03-12T14:28:38.796Z,1.83
2018-03-12T14:31:05.129Z,2.00
2018-03-12T14:33:32.152Z,1.77
2018-03-12T14:35:58.502Z,1.93
2018-03-12T14:38:24.801Z,1.57
2018-03-12T14:40:51.054Z,1.37
2018-03-12T14:43:17.344Z,2.07
2018-03-12T14:45:43.653Z,3.90
2018-03-12T14:48:10.682Z,4.23
2018-03-12T14:50:37.089Z,2.80
2018-03-12T14:53:03.417Z,2.50
2018-03-12T14:55:29.768Z,1.83
2018-03-12T14:57:56.052Z,1.67
2018-03-12T15:00:22.367Z,3.53
2018-03-12T15:02:48.744Z,1.20
2018-03-12T15:05:15.140Z,1.70
2018-03-12T15:07:41.487Z,1.37
2018-03-12T15:10:07.783Z,2.13
2018-03-12T15:12:34.854Z,1.97
2018-03-12T15:15:01.250Z,3.30
2018-03-12T15:17:28.326Z,2.53
2018-03-12T15:19:54.639Z,2.90
2018-03-12T15:22:21.829Z,1.97
2018-03-12T15:24:48.136Z,1.87
2018-03-12T15:27:14.465Z,3.17
2018-03-12T15:29:40.768Z,1.70
2018-03-12T15:32:07.099Z,2.67
2018-03-12T15:34:34.279Z,1.70
2018-03-12T15:37:00.641Z,3.50
2018-03-12T15:39:26.945Z,2.00
2018-03-12T15:41:53.268Z,2.20
2018-03-12T15:44:20.269Z,2.40
2018-03-12T15:46:46.555Z,3.47
2018-03-12T15:49:13.644Z,2.47
2018-03-12T15:51:40.156Z,2.43
2018-03-12T15:54:06.598Z,3.57
2018-03-12T15:56:33.225Z,2.93
2018-03-12T15:58:59.532Z,2.57
2018-03-12T16:01:26.553Z,3.20
2018-03-12T16:03:53.653Z,3.13
2018-03-12T16:06:19.990Z,3.83
2018-03-12T16:08:46.294Z,4.27
2018-03-12T16:11:13.333Z,3.80
2018-03-12T16:13:40.393Z,3.97
2018-03-12T16:16:06.693Z,3.33
2018-03-12T16:18:34.800Z,3.33
2018-03-12T16:21:01.113Z,5.63
2018-03-12T16:23:28.182Z,3.67
2018-03-12T16:25:54.516Z,3.80
2018-03-12T16:28:20.833Z,3.97
2018-03-12T16:30:47.888Z,3.57
2018-03-12T16:33:14.298Z,3.50
2018-03-12T16:35:41.347Z,3.60
2018-03-12T16:38:07.714Z,3.87
2018-03-12T16:40:34.015Z,5.60
2018-03-12T16:43:01.063Z,3.83
2018-03-12T16:45:28.067Z,4.37
2018-03-12T16:47:54.383Z,5.20
2018-03-12T16:50:20.648Z,7.53
2018-03-12T16:52:46.999Z,6.90
2018-03-12T16:55:14.049Z,8.40
2018-03-12T16:57:41.144Z,8.53
2018-03-12T17:00:08.014Z,7.97
2018-03-12T17:02:34.292Z,8.60
2018-03-12T17:05:00.592Z,10.97
2018-03-12T17:07:28.412Z,15.73
2018-03-12T17:09:54.718Z,11.80
2018-03-12T17:12:20.964Z,10.07
2018-03-12T17:14:47.280Z,12.30
2018-03-12T17:17:13.654Z,11.40
2018-03-12T17:19:39.964Z,11.63
2018-03-12T17:22:09.328Z,10.77
2018-03-12T17:24:36.505Z,11.77
2018-03-12T17:27:02.829Z,12.27
2018-03-12T17:29:29.283Z,17.70
2018-03-12T17:31:55.602Z,16.53
2018-03-12T17:34:21.897Z,19.93
2018-03-12T17:36:48.999Z,18.10
2018-03-12T17:39:15.323Z,21.83
2018-03-12T17:41:41.592Z,20.23
2018-03-12T17:44:08.052Z,16.53
2018-03-12T17:46:35.086Z,17.53
2018-03-12T17:49:02.203Z,16.57
2018-03-12T17:51:28.493Z,14.60
2018-03-12T17:53:54.809Z,12.93
2018-03-12T17:56:21.902Z,15.00
2018-03-12T17:58:48.183Z,16.07
2018-03-12T18:01:15.241Z,18.73
2018-03-12T18:03:42.293Z,20.90
2018-03-12T18:06:09.319Z,27.00
2018-03-12T18:08:35.633Z,30.10
2018-03-12T18:11:01.927Z,26.47
2018-03-12T18:13:28.271Z,19.70
2018-03-12T18:15:54.593Z,13.70
2018-03-12T18:18:21.058Z,11.60
2018-03-12T18:20:47.358Z,11.60
2018-03-12T18:23:13.774Z,8.80
2018-03-12T18:25:40.220Z,5.90
2018-03-12T18:28:06.610Z,6.37
2018-03-12T18:30:33.820Z,3.90
2018-03-12T18:33:00.099Z,4.63
2018-03-12T18:35:27.217Z,5.33
2018-03-12T18:37:53.540Z,5.30
2018-03-12T18:40:19.903Z,5.80
2018-03-12T18:42:46.247Z,7.07
2018-03-12T18:45:13.332Z,7.17
2018-03-12T18:47:39.683Z,7.43
2018-03-12T18:50:06.133Z,7.97
2018-03-12T18:52:32.429Z,8.63
2018-03-12T18:54:58.745Z,8.90
2018-03-12T18:57:25.031Z,10.07
2018-03-12T18:59:51.317Z,8.20
2018-03-12T19:02:17.682Z,7.73
2018-03-12T19:04:44.004Z,7.23
2018-03-12T19:07:10.311Z,7.47
2018-03-12T19:09:36.735Z,6.90
2018-03-12T19:12:03.033Z,6.73
2018-03-12T19:14:30.103Z,8.33
2018-03-12T19:16:56.376Z,6.83
2018-03-12T19:19:22.752Z,7.20
2018-03-12T19:21:49.780Z,7.90
2018-03-12T19:24:16.033Z,7.57
2018-03-12T19:26:43.085Z,6.30
2018-03-12T19:29:10.133Z,7.57
2018-03-12T19:31:37.210Z,6.80
2018-03-12T19:34:03.463Z,12.20
2018-03-12T19:36:30.589Z,7.43
2018-03-12T19:38:56.858Z,8.17
2018-03-12T19:41:24.307Z,7.37
2018-03-12T19:43:50.595Z,6.67
2018-03-12T19:46:16.964Z,7.53
2018-03-12T19:48:43.406Z,7.70
2018-03-12T19:51:09.718Z,8.60
2018-03-12T19:53:36.010Z,8.53
2018-03-12T19:56:02.324Z,9.90
2018-03-12T19:58:28.592Z,6.90
2018-03-12T20:00:54.896Z,7.40
2018-03-12T20:03:22.051Z,8.23
2018-03-12T20:05:48.576Z,8.13
2018-03-12T20:08:19.656Z,10.17
2018-03-12T20:10:46.397Z,17.03
2018-03-12T20:13:16.547Z,7.97
2018-03-12T20:15:44.146Z,7.53
2018-03-12T20:18:10.650Z,7.50
2018-03-12T20:20:36.881Z,8.60
2018-03-12T20:23:03.204Z,5.87
2018-03-12T20:25:29.486Z,9.33
2018-03-12T20:27:55.791Z,7.20
2018-03-12T20:30:22.144Z,9.33
2018-03-12T20:32:48.685Z,11.17
2018-03-12T20:35:15.105Z,11.50
2018-03-12T20:37:41.575Z,9.30
2018-03-12T20:40:08.011Z,6.90
2018-03-12T20:42:35.391Z,3.80
2018-03-12T20:45:01.697Z,9.70
2018-03-12T20:47:28.000Z,9.97
2018-03-12T20:49:54.396Z,4.87
2018-03-12T20:52:20.734Z,5.47
2018-03-12T20:54:47.026Z,4.20
2018-03-12T20:57:13.378Z,5.87
2018-03-12T20:59:40.537Z,12.87
2018-03-12T21:02:06.921Z,6.40
2018-03-12T21:04:33.258Z,6.20
2018-03-12T21:06:59.568Z,5.43
2018-03-12T21:09:25.920Z,9.50
2018-03-12T21:11:52.219Z,5.50
2018-03-12T21:14:19.429Z,3.70
2018-03-12T21:16:45.800Z,7.90
2018-03-12T21:19:12.097Z,5.57
2018-03-12T21:21:38.459Z,14.00
2018-03-12T21:24:05.509Z,5.17
2018-03-12T21:26:32.615Z,6.17
2018-03-12T21:28:58.919Z,4.90
2018-03-12T21:31:25.209Z,4.40
2018-03-12T21:33:51.615Z,4.27
2018-03-12T21:36:17.990Z,8.10
2018-03-12T21:38:45.043Z,4.87
2018-03-12T21:41:12.085Z,6.50
2018-03-12T21:43:39.168Z,5.70
2018-03-12T21:46:05.490Z,5.90
2018-03-12T21:48:31.794Z,5.33
2018-03-12T21:50:58.880Z,5.17
2018-03-12T21:53:25.696Z,5.30
2018-03-12T21:55:52.718Z,4.80
2018-03-12T21:58:19.752Z,7.13
2018-03-12T22:00:46.058Z,3.70
2018-03-12T22:03:12.348Z,4.43
2018-03-12T22:05:39.471Z,3.87
2018-03-12T22:08:05.765Z,2.90
2018-03-12T22:10:32.064Z,4.83
2018-03-12T22:12:59.072Z,4.10
2018-03-12T22:15:25.345Z,4.20
2018-03-12T22:17:51.588Z,2.97
2018-03-12T22:20:17.874Z,3.30
2018-03-12T22:22:44.149Z,3.67
2018-03-12T22:25:10.383Z,5.57
2018-03-12T22:27:36.656Z,4.77
2018-03-12T22:30:02.936Z,5.27
2018-03-12T22:32:29.259Z,4.40
2018-03-12T22:34:56.164Z,4.53
2018-03-12T22:37:22.462Z,3.00
2018-03-12T22:39:48.804Z,4.10
2018-03-12T22:42:15.088Z,3.63
2018-03-12T22:44:41.414Z,3.00
2018-03-12T22:47:08.477Z,4.90
2018-03-12T22:49:34.756Z,4.20
2018-03-12T22:52:01.145Z,5.23
2018-03-12T22:54:27.458Z,1.70
2018-03-12T22:56:53.821Z,6.43
2018-03-12T22:59:20.089Z,2.93
2018-03-12T23:01:46.443Z,2.37
2018-03-12T23:04:13.707Z,4.20
2018-03-12T23:06:39.963Z,2.27
2018-03-12T23:09:06.311Z,3.60
2018-03-12T23:11:32.639Z,5.10
2018-03-12T23:13:59.003Z,3.93
2018-03-12T23:16:25.315Z,3.63
2018-03-12T23:18:51.691Z,2.97
2018-03-12T23:21:18.748Z,1.53
2018-03-12T23:23:45.068Z,3.93
2018-03-12T23:26:11.447Z,4.03
2018-03-12T23:28:37.782Z,1.93
2018-03-12T23:31:04.108Z,3.03
2018-03-12T23:33:30.441Z,1.43
2018-03-12T23:35:56.722Z,8.63
2018-03-12T23:38:23.876Z,2.50
2018-03-12T23:40:50.922Z,2.43
2018-03-12T23:43:17.967Z,3.33
2018-03-12T23:45:45.044Z,2.93
2018-03-12T23:48:11.383Z,6.40
2018-03-12T23:50:37.739Z,2.80
2018-03-12T23:53:04.177Z,1.87
2018-03-12T23:55:30.470Z,2.70
2018-03-12T23:57:56.789Z,1.30
